sensor_id;sensor_type;location;lat;lon;timestamp;temperature;humidity
22558;DHT22;11445;53.816;8.902;2023-02-28T00:00:10;4.50;99.90
22558;DHT22;11445;53.816;8.902;2023-02-28T00:02:37;4.50;99.90
22558;DHT22;11445;53.816;8.902;2023-02-28T00:05:06;4.50;99.90
22558;DHT22;11445;53.816;8.902;2023-02-28T00:07:33;4.50;99.90
22558;DHT22;11445;53.816;8.902;2023-02-28T00:10:01;4.60;99.90
22558;DHT22;11445;53.816;8.902;2023-02-28T00:12:30;4.50;99.90
22558;DHT22;11445;53.816;8.902;2023-02-28T00:14:57;4.50;99.90
22558;DHT22;11445;53.816;8.902;2023-02-28T00:17:24;4.60;99.90
22558;DHT22;11445;53.816;8.902;2023-02-28T00:19:52;4.60;99.90
22558;DHT22;11445;53.816;8.902;2023-02-28T00:22:20;4.60;99.90
22558;DHT22;11445;53.816;8.902;2023-02-28T00:24:47;4.50;99.90
22558;DHT22;11445;53.816;8.902;2023-02-28T00:27:15;4.50;99.90
22558;DHT22;11445;53.816;8.902;2023-02-28T00:29:43;4.50;99.90
22558;DHT22;11445;53.816;8.902;2023-02-28T00:32:10;4.50;99.90
22558;DHT22;11445;53.816;8.902;2023-02-28T00:34:37;4.50;99.90
22558;DHT22;11445;53.816;8.902;2023-02-28T00:37:05;4.50;99.90
22558;DHT22;11445;53.816;8.902;2023-02-28T00:39:34;4.50;99.90
22558;DHT22;11445;53.816;8.902;2023-02-28T00:42:02;4.50;99.90
22558;DHT22;11445;53.816;8.902;2023-02-28T00:44:29;4.60;99.90
22558;DHT22;11445;53.816;8.902;2023-02-28T00:46:58;4.60;99.90
22558;DHT22;11445;53.816;8.902;2023-02-28T00:49:26;4.60;99.90
22558;DHT22;11445;53.816;8.902;2023-02-28T00:51:54;4.60;99.90
22558;DHT22;11445;53.816;8.902;2023-02-28T00:54:22;4.60;99.90
22558;DHT22;11445;53.816;8.902;2023-02-28T00:56:49;4.60;99.90
22558;DHT22;11445;53.816;8.902;2023-02-28T00:59:17;4.60;99.90
22558;DHT22;11445;53.816;8.902;2023-02-28T01:01:46;4.60;99.90
22558;DHT22;11445;53.816;8.902;2023-02-28T01:04:15;4.60;99.90
22558;DHT22;11445;53.816;8.902;2023-02-28T01:06:42;4.60;99.90
22558;DHT22;11445;53.816;8.902;2023-02-28T01:09:09;4.50;99.90
22558;DHT22;11445;53.816;8.902;2023-02-28T01:11:37;4.50;99.90
22558;DHT22;11445;53.816;8.902;2023-02-28T01:14:04;4.50;99.90
22558;DHT22;11445;53.816;8.902;2023-02-28T01:16:31;4.50;99.90
22558;DHT22;11445;53.816;8.902;2023-02-28T01:18:59;4.50;99.90
22558;DHT22;11445;53.816;8.902;2023-02-28T01:21:27;4.60;99.90
22558;DHT22;11445;53.816;8.902;2023-02-28T01:23:56;4.60;99.90
22558;DHT22;11445;53.816;8.902;2023-02-28T01:26:24;4.60;99.90
22558;DHT22;11445;53.816;8.902;2023-02-28T01:28:52;4.50;99.90
22558;DHT22;11445;53.816;8.902;2023-02-28T01:31:20;4.50;99.90
22558;DHT22;11445;53.816;8.902;2023-02-28T01:33:48;4.60;99.90
22558;DHT22;11445;53.816;8.902;2023-02-28T01:36:17;4.50;99.90
22558;DHT22;11445;53.816;8.902;2023-02-28T01:38:46;4.50;99.90
22558;DHT22;11445;53.816;8.902;2023-02-28T01:41:17;4.60;99.90
22558;DHT22;11445;53.816;8.902;2023-02-28T01:43:59;4.50;99.90
22558;DHT22;11445;53.816;8.902;2023-02-28T01:46:30;4.50;99.90
22558;DHT22;11445;53.816;8.902;2023-02-28T01:49:02;4.50;99.90
22558;DHT22;11445;53.816;8.902;2023-02-28T01:51:35;4.50;99.90
22558;DHT22;11445;53.816;8.902;2023-02-28T01:54:07;4.50;99.90
22558;DHT22;11445;53.816;8.902;2023-02-28T01:56:41;4.50;99.90
22558;DHT22;11445;53.816;8.902;2023-02-28T01:59:09;4.50;99.90
22558;DHT22;11445;53.816;8.902;2023-02-28T02:01:37;4.50;99.90
22558;DHT22;11445;53.816;8.902;2023-02-28T02:04:04;4.50;99.90
22558;DHT22;11445;53.816;8.902;2023-02-28T02:06:35;4.50;99.90
22558;DHT22;11445;53.816;8.902;2023-02-28T02:09:05;4.50;99.90
22558;DHT22;11445;53.816;8.902;2023-02-28T02:11:32;4.50;99.90
22558;DHT22;11445;53.816;8.902;2023-02-28T02:14:17;4.50;99.90
22558;DHT22;11445;53.816;8.902;2023-02-28T02:17:05;4.50;99.90
22558;DHT22;11445;53.816;8.902;2023-02-28T02:23:22;4.50;99.90
22558;DHT22;11445;53.816;8.902;2023-02-28T02:25:55;4.50;99.90
22558;DHT22;11445;53.816;8.902;2023-02-28T02:28:42;4.50;99.90
22558;DHT22;11445;53.816;8.902;2023-02-28T02:31:37;4.50;99.90
22558;DHT22;11445;53.816;8.902;2023-02-28T02:37:27;4.50;99.90
22558;DHT22;11445;53.816;8.902;2023-02-28T02:40:02;4.40;99.90
22558;DHT22;11445;53.816;8.902;2023-02-28T02:42:37;4.40;99.90
22558;DHT22;11445;53.816;8.902;2023-02-28T02:45:08;4.40;99.90
22558;DHT22;11445;53.816;8.902;2023-02-28T02:47:37;4.40;99.90
22558;DHT22;11445;53.816;8.902;2023-02-28T02:50:08;4.40;99.90
22558;DHT22;11445;53.816;8.902;2023-02-28T02:52:42;4.40;99.90
22558;DHT22;11445;53.816;8.902;2023-02-28T02:55:12;4.30;99.90
22558;DHT22;11445;53.816;8.902;2023-02-28T02:57:44;4.30;99.90
22558;DHT22;11445;53.816;8.902;2023-02-28T03:00:13;4.30;99.90
22558;DHT22;11445;53.816;8.902;2023-02-28T03:02:41;4.30;99.90
22558;DHT22;11445;53.816;8.902;2023-02-28T03:05:19;4.30;99.90
22558;DHT22;11445;53.816;8.902;2023-02-28T03:07:48;4.40;99.90
22558;DHT22;11445;53.816;8.902;2023-02-28T03:10:31;4.30;99.90
22558;DHT22;11445;53.816;8.902;2023-02-28T03:13:26;4.30;99.90
22558;DHT22;11445;53.816;8.902;2023-02-28T03:16:06;4.30;99.90
22558;DHT22;11445;53.816;8.902;2023-02-28T03:18:43;4.30;99.90
22558;DHT22;11445;53.816;8.902;2023-02-28T03:21:22;4.40;99.90
22558;DHT22;11445;53.816;8.902;2023-02-28T03:23:58;4.40;99.90
22558;DHT22;11445;53.816;8.902;2023-02-28T03:26:27;4.30;99.90
22558;DHT22;11445;53.816;8.902;2023-02-28T03:29:02;4.30;99.90
22558;DHT22;11445;53.816;8.902;2023-02-28T03:31:35;4.30;99.90
22558;DHT22;11445;53.816;8.902;2023-02-28T03:34:08;4.30;99.90
22558;DHT22;11445;53.816;8.902;2023-02-28T03:36:39;4.30;99.90
22558;DHT22;11445;53.816;8.902;2023-02-28T03:39:14;4.30;99.90
22558;DHT22;11445;53.816;8.902;2023-02-28T03:41:43;4.30;99.90
22558;DHT22;11445;53.816;8.902;2023-02-28T03:44:19;4.30;99.90
22558;DHT22;11445;53.816;8.902;2023-02-28T03:46:52;4.30;99.90
22558;DHT22;11445;53.816;8.902;2023-02-28T03:49:24;4.30;99.90
22558;DHT22;11445;53.816;8.902;2023-02-28T03:51:54;4.30;99.90
22558;DHT22;11445;53.816;8.902;2023-02-28T03:54:30;4.30;99.90
22558;DHT22;11445;53.816;8.902;2023-02-28T03:57:02;4.30;99.90
22558;DHT22;11445;53.816;8.902;2023-02-28T03:59:35;4.30;99.90
22558;DHT22;11445;53.816;8.902;2023-02-28T04:02:04;4.30;99.90
22558;DHT22;11445;53.816;8.902;2023-02-28T04:04:31;4.30;99.90
22558;DHT22;11445;53.816;8.902;2023-02-28T04:07:03;4.20;99.90
22558;DHT22;11445;53.816;8.902;2023-02-28T04:09:31;4.20;99.90
22558;DHT22;11445;53.816;8.902;2023-02-28T04:11:59;4.20;99.90
22558;DHT22;11445;53.816;8.902;2023-02-28T04:14:26;4.20;99.90
22558;DHT22;11445;53.816;8.902;2023-02-28T04:16:53;4.20;99.90
22558;DHT22;11445;53.816;8.902;2023-02-28T04:19:20;4.20;99.90
22558;DHT22;11445;53.816;8.902;2023-02-28T04:21:49;4.20;99.90
22558;DHT22;11445;53.816;8.902;2023-02-28T04:24:18;4.20;99.90
22558;DHT22;11445;53.816;8.902;2023-02-28T04:26:49;4.10;99.90
22558;DHT22;11445;53.816;8.902;2023-02-28T04:29:19;4.10;99.90
22558;DHT22;11445;53.816;8.902;2023-02-28T04:31:47;4.00;99.90
22558;DHT22;11445;53.816;8.902;2023-02-28T04:34:14;4.00;99.90
22558;DHT22;11445;53.816;8.902;2023-02-28T04:36:41;4.00;99.90
22558;DHT22;11445;53.816;8.902;2023-02-28T04:39:08;4.00;99.90
22558;DHT22;11445;53.816;8.902;2023-02-28T04:41:36;3.90;99.90
22558;DHT22;11445;53.816;8.902;2023-02-28T04:44:05;3.90;99.90
22558;DHT22;11445;53.816;8.902;2023-02-28T04:46:32;3.80;99.90
22558;DHT22;11445;53.816;8.902;2023-02-28T04:48:59;3.80;99.90
22558;DHT22;11445;53.816;8.902;2023-02-28T04:51:26;3.70;99.90
22558;DHT22;11445;53.816;8.902;2023-02-28T04:53:53;3.70;99.90
22558;DHT22;11445;53.816;8.902;2023-02-28T04:56:21;3.70;99.90
22558;DHT22;11445;53.816;8.902;2023-02-28T04:58:49;3.70;99.90
22558;DHT22;11445;53.816;8.902;2023-02-28T05:01:20;3.60;99.90
22558;DHT22;11445;53.816;8.902;2023-02-28T05:03:48;3.60;99.90
22558;DHT22;11445;53.816;8.902;2023-02-28T05:06:15;3.60;99.90
22558;DHT22;11445;53.816;8.902;2023-02-28T05:08:43;3.50;99.90
22558;DHT22;11445;53.816;8.902;2023-02-28T05:11:15;3.40;99.90
22558;DHT22;11445;53.816;8.902;2023-02-28T05:13:43;3.40;99.90
22558;DHT22;11445;53.816;8.902;2023-02-28T05:16:10;3.40;99.90
22558;DHT22;11445;53.816;8.902;2023-02-28T05:18:39;3.30;99.90
22558;DHT22;11445;53.816;8.902;2023-02-28T05:21:12;3.30;99.90
22558;DHT22;11445;53.816;8.902;2023-02-28T05:23:44;3.30;99.90
22558;DHT22;11445;53.816;8.902;2023-02-28T05:26:11;3.20;99.90
22558;DHT22;11445;53.816;8.902;2023-02-28T05:28:38;3.20;99.90
22558;DHT22;11445;53.816;8.902;2023-02-28T05:31:05;3.10;99.90
22558;DHT22;11445;53.816;8.902;2023-02-28T05:33:33;3.00;99.90
22558;DHT22;11445;53.816;8.902;2023-02-28T05:36:01;3.00;99.90
22558;DHT22;11445;53.816;8.902;2023-02-28T05:38:29;2.90;99.90
22558;DHT22;11445;53.816;8.902;2023-02-28T05:40:56;3.00;99.90
22558;DHT22;11445;53.816;8.902;2023-02-28T05:43:23;3.00;99.90
22558;DHT22;11445;53.816;8.902;2023-02-28T05:45:50;3.00;99.90
22558;DHT22;11445;53.816;8.902;2023-02-28T05:48:17;3.00;99.90
22558;DHT22;11445;53.816;8.902;2023-02-28T05:50:45;3.10;99.90
22558;DHT22;11445;53.816;8.902;2023-02-28T05:53:14;3.10;99.90
22558;DHT22;11445;53.816;8.902;2023-02-28T05:55:41;3.10;99.90
22558;DHT22;11445;53.816;8.902;2023-02-28T05:58:08;3.10;99.90
22558;DHT22;11445;53.816;8.902;2023-02-28T06:00:35;3.10;99.90
22558;DHT22;11445;53.816;8.902;2023-02-28T06:03:02;3.10;99.90
22558;DHT22;11445;53.816;8.902;2023-02-28T06:05:29;3.10;99.90
22558;DHT22;11445;53.816;8.902;2023-02-28T06:07:57;3.10;99.90
22558;DHT22;11445;53.816;8.902;2023-02-28T06:10:25;3.10;99.90
22558;DHT22;11445;53.816;8.902;2023-02-28T06:12:52;3.20;99.90
22558;DHT22;11445;53.816;8.902;2023-02-28T06:15:19;3.20;99.90
22558;DHT22;11445;53.816;8.902;2023-02-28T06:17:47;3.20;99.90
22558;DHT22;11445;53.816;8.902;2023-02-28T06:20:14;3.20;99.90
22558;DHT22;11445;53.816;8.902;2023-02-28T06:22:41;3.20;99.90
22558;DHT22;11445;53.816;8.902;2023-02-28T06:25:10;3.20;99.90
22558;DHT22;11445;53.816;8.902;2023-02-28T06:27:38;3.10;99.90
22558;DHT22;11445;53.816;8.902;2023-02-28T06:30:07;3.10;99.90
22558;DHT22;11445;53.816;8.902;2023-02-28T06:32:34;3.10;99.90
22558;DHT22;11445;53.816;8.902;2023-02-28T06:35:02;3.10;99.90
22558;DHT22;11445;53.816;8.902;2023-02-28T06:37:30;3.00;99.90
22558;DHT22;11445;53.816;8.902;2023-02-28T06:39:57;3.00;99.90
22558;DHT22;11445;53.816;8.902;2023-02-28T06:42:25;3.00;99.90
22558;DHT22;11445;53.816;8.902;2023-02-28T06:44:56;3.00;99.90
22558;DHT22;11445;53.816;8.902;2023-02-28T06:47:23;3.00;99.90
22558;DHT22;11445;53.816;8.902;2023-02-28T06:49:50;3.00;99.90
22558;DHT22;11445;53.816;8.902;2023-02-28T06:52:17;3.10;99.90
22558;DHT22;11445;53.816;8.902;2023-02-28T06:54:44;3.20;99.90
22558;DHT22;11445;53.816;8.902;2023-02-28T06:57:11;3.20;99.90
22558;DHT22;11445;53.816;8.902;2023-02-28T06:59:38;3.20;99.90
22558;DHT22;11445;53.816;8.902;2023-02-28T07:02:08;3.20;99.90
22558;DHT22;11445;53.816;8.902;2023-02-28T07:04:35;3.10;99.90
22558;DHT22;11445;53.816;8.902;2023-02-28T07:07:02;3.10;99.90
22558;DHT22;11445;53.816;8.902;2023-02-28T07:09:29;3.10;99.90
22558;DHT22;11445;53.816;8.902;2023-02-28T07:11:56;3.10;99.90
22558;DHT22;11445;53.816;8.902;2023-02-28T07:14:23;3.10;99.90
22558;DHT22;11445;53.816;8.902;2023-02-28T07:16:50;3.10;99.90
22558;DHT22;11445;53.816;8.902;2023-02-28T07:19:18;3.10;99.90
22558;DHT22;11445;53.816;8.902;2023-02-28T07:21:45;3.10;99.90
22558;DHT22;11445;53.816;8.902;2023-02-28T07:24:13;3.10;99.90
22558;DHT22;11445;53.816;8.902;2023-02-28T07:26:41;3.10;99.90
22558;DHT22;11445;53.816;8.902;2023-02-28T07:29:08;3.10;99.90
22558;DHT22;11445;53.816;8.902;2023-02-28T07:31:35;3.10;99.90
22558;DHT22;11445;53.816;8.902;2023-02-28T07:34:02;3.20;99.90
22558;DHT22;11445;53.816;8.902;2023-02-28T07:36:31;3.20;99.90
22558;DHT22;11445;53.816;8.902;2023-02-28T07:38:59;3.20;99.90
22558;DHT22;11445;53.816;8.902;2023-02-28T07:41:26;3.20;99.90
22558;DHT22;11445;53.816;8.902;2023-02-28T07:43:55;3.30;99.90
22558;DHT22;11445;53.816;8.902;2023-02-28T07:46:23;3.40;99.90
22558;DHT22;11445;53.816;8.902;2023-02-28T07:48:50;3.40;99.90
22558;DHT22;11445;53.816;8.902;2023-02-28T07:51:17;3.50;99.90
22558;DHT22;11445;53.816;8.902;2023-02-28T07:53:45;3.50;99.90
22558;DHT22;11445;53.816;8.902;2023-02-28T07:56:12;3.50;99.90
22558;DHT22;11445;53.816;8.902;2023-02-28T07:58:40;3.60;99.90
22558;DHT22;11445;53.816;8.902;2023-02-28T08:01:08;3.50;99.90
22558;DHT22;11445;53.816;8.902;2023-02-28T08:03:36;3.60;99.90
22558;DHT22;11445;53.816;8.902;2023-02-28T08:06:03;3.70;99.90
22558;DHT22;11445;53.816;8.902;2023-02-28T08:08:30;3.70;99.90
22558;DHT22;11445;53.816;8.902;2023-02-28T08:11:00;3.70;99.90
22558;DHT22;11445;53.816;8.902;2023-02-28T08:13:28;3.70;99.90
22558;DHT22;11445;53.816;8.902;2023-02-28T08:15:56;3.80;99.90
22558;DHT22;11445;53.816;8.902;2023-02-28T08:18:23;3.80;99.90
22558;DHT22;11445;53.816;8.902;2023-02-28T08:20:50;3.90;99.90
22558;DHT22;11445;53.816;8.902;2023-02-28T08:23:17;4.00;99.90
22558;DHT22;11445;53.816;8.902;2023-02-28T08:25:45;4.00;99.90
22558;DHT22;11445;53.816;8.902;2023-02-28T08:28:20;4.10;99.90
22558;DHT22;11445;53.816;8.902;2023-02-28T08:30:47;4.10;99.90
22558;DHT22;11445;53.816;8.902;2023-02-28T08:33:14;4.10;99.90
22558;DHT22;11445;53.816;8.902;2023-02-28T08:35:41;4.20;99.90
22558;DHT22;11445;53.816;8.902;2023-02-28T08:38:08;4.30;99.90
22558;DHT22;11445;53.816;8.902;2023-02-28T08:40:35;4.30;99.90
22558;DHT22;11445;53.816;8.902;2023-02-28T08:43:03;4.40;99.90
22558;DHT22;11445;53.816;8.902;2023-02-28T08:45:31;4.50;99.90
22558;DHT22;11445;53.816;8.902;2023-02-28T08:47:58;4.50;99.90
22558;DHT22;11445;53.816;8.902;2023-02-28T08:50:25;4.60;99.90
22558;DHT22;11445;53.816;8.902;2023-02-28T08:52:52;4.90;99.90
22558;DHT22;11445;53.816;8.902;2023-02-28T08:55:19;5.10;99.90
22558;DHT22;11445;53.816;8.902;2023-02-28T08:57:46;5.10;99.90
22558;DHT22;11445;53.816;8.902;2023-02-28T09:00:14;5.10;99.90
22558;DHT22;11445;53.816;8.902;2023-02-28T09:02:42;5.10;99.90
22558;DHT22;11445;53.816;8.902;2023-02-28T09:05:09;5.00;99.90
22558;DHT22;11445;53.816;8.902;2023-02-28T09:07:36;5.00;99.90
22558;DHT22;11445;53.816;8.902;2023-02-28T09:10:04;5.00;99.90
22558;DHT22;11445;53.816;8.902;2023-02-28T09:12:34;5.00;99.90
22558;DHT22;11445;53.816;8.902;2023-02-28T09:15:01;5.10;99.90
22558;DHT22;11445;53.816;8.902;2023-02-28T09:17:28;5.00;99.90
22558;DHT22;11445;53.816;8.902;2023-02-28T09:19:57;5.00;99.90
22558;DHT22;11445;53.816;8.902;2023-02-28T09:22:24;5.10;99.90
22558;DHT22;11445;53.816;8.902;2023-02-28T09:24:51;5.20;99.90
22558;DHT22;11445;53.816;8.902;2023-02-28T09:27:18;5.20;99.90
22558;DHT22;11445;53.816;8.902;2023-02-28T09:29:45;5.20;99.90
22558;DHT22;11445;53.816;8.902;2023-02-28T09:32:12;5.10;99.90
22558;DHT22;11445;53.816;8.902;2023-02-28T09:34:40;5.20;99.90
22558;DHT22;11445;53.816;8.902;2023-02-28T09:37:08;5.20;99.90
22558;DHT22;11445;53.816;8.902;2023-02-28T09:39:35;5.20;99.90
22558;DHT22;11445;53.816;8.902;2023-02-28T09:42:03;5.30;99.90
22558;DHT22;11445;53.816;8.902;2023-02-28T09:44:35;5.50;99.90
22558;DHT22;11445;53.816;8.902;2023-02-28T09:47:07;5.60;99.90
22558;DHT22;11445;53.816;8.902;2023-02-28T09:49:40;5.60;99.90
22558;DHT22;11445;53.816;8.902;2023-02-28T09:52:13;5.70;99.90
22558;DHT22;11445;53.816;8.902;2023-02-28T09:54:40;5.70;99.90
22558;DHT22;11445;53.816;8.902;2023-02-28T09:57:15;5.70;99.90
22558;DHT22;11445;53.816;8.902;2023-02-28T10:00:03;5.70;99.90
22558;DHT22;11445;53.816;8.902;2023-02-28T10:02:51;5.70;99.90
22558;DHT22;11445;53.816;8.902;2023-02-28T10:05:23;5.80;99.90
22558;DHT22;11445;53.816;8.902;2023-02-28T10:08:03;5.80;99.90
22558;DHT22;11445;53.816;8.902;2023-02-28T10:10:38;5.80;99.90
22558;DHT22;11445;53.816;8.902;2023-02-28T10:13:14;5.80;99.90
22558;DHT22;11445;53.816;8.902;2023-02-28T10:15:45;5.80;99.90
22558;DHT22;11445;53.816;8.902;2023-02-28T10:18:19;5.80;99.90
22558;DHT22;11445;53.816;8.902;2023-02-28T10:20:49;5.90;99.90
22558;DHT22;11445;53.816;8.902;2023-02-28T10:23:21;5.90;99.90
22558;DHT22;11445;53.816;8.902;2023-02-28T10:25:54;5.90;99.90
22558;DHT22;11445;53.816;8.902;2023-02-28T10:28:21;6.00;99.90
22558;DHT22;11445;53.816;8.902;2023-02-28T10:30:50;5.90;99.90
22558;DHT22;11445;53.816;8.902;2023-02-28T10:33:22;5.90;99.90
22558;DHT22;11445;53.816;8.902;2023-02-28T10:35:50;6.00;99.90
22558;DHT22;11445;53.816;8.902;2023-02-28T10:38:21;6.00;99.90
22558;DHT22;11445;53.816;8.902;2023-02-28T10:40:49;6.10;99.90
22558;DHT22;11445;53.816;8.902;2023-02-28T10:43:21;6.10;99.90
22558;DHT22;11445;53.816;8.902;2023-02-28T10:46:01;6.20;99.90
22558;DHT22;11445;53.816;8.902;2023-02-28T10:48:37;6.20;99.90
22558;DHT22;11445;53.816;8.902;2023-02-28T10:51:06;6.20;99.90
22558;DHT22;11445;53.816;8.902;2023-02-28T10:53:38;6.30;99.90
22558;DHT22;11445;53.816;8.902;2023-02-28T10:56:15;6.30;99.90
22558;DHT22;11445;53.816;8.902;2023-02-28T10:58:49;6.30;99.90
22558;DHT22;11445;53.816;8.902;2023-02-28T11:01:18;6.40;99.90
22558;DHT22;11445;53.816;8.902;2023-02-28T11:03:46;6.40;99.90
22558;DHT22;11445;53.816;8.902;2023-02-28T11:06:17;6.50;99.90
22558;DHT22;11445;53.816;8.902;2023-02-28T11:08:47;6.50;99.90
22558;DHT22;11445;53.816;8.902;2023-02-28T11:11:16;6.50;99.90
22558;DHT22;11445;53.816;8.902;2023-02-28T11:13:45;6.60;99.90
22558;DHT22;11445;53.816;8.902;2023-02-28T11:16:14;6.60;99.90
22558;DHT22;11445;53.816;8.902;2023-02-28T11:18:48;6.60;99.90
22558;DHT22;11445;53.816;8.902;2023-02-28T11:21:19;6.60;99.90
22558;DHT22;11445;53.816;8.902;2023-02-28T11:23:50;6.60;99.90
22558;DHT22;11445;53.816;8.902;2023-02-28T11:26:37;6.60;99.90
22558;DHT22;11445;53.816;8.902;2023-02-28T11:29:11;6.60;99.90
22558;DHT22;11445;53.816;8.902;2023-02-28T11:31:39;6.60;99.90
22558;DHT22;11445;53.816;8.902;2023-02-28T11:34:23;6.60;99.90
22558;DHT22;11445;53.816;8.902;2023-02-28T11:36:52;6.50;99.90
22558;DHT22;11445;53.816;8.902;2023-02-28T11:39:21;6.50;99.90
22558;DHT22;11445;53.816;8.902;2023-02-28T11:42:10;6.50;99.90
22558;DHT22;11445;53.816;8.902;2023-02-28T11:44:50;6.50;99.90
22558;DHT22;11445;53.816;8.902;2023-02-28T11:47:29;6.50;99.90
22558;DHT22;11445;53.816;8.902;2023-02-28T11:50:12;6.50;99.90
22558;DHT22;11445;53.816;8.902;2023-02-28T11:52:48;6.60;99.90
22558;DHT22;11445;53.816;8.902;2023-02-28T11:55:21;6.60;99.90
22558;DHT22;11445;53.816;8.902;2023-02-28T11:58:12;6.70;99.90
22558;DHT22;11445;53.816;8.902;2023-02-28T12:01:01;6.70;99.90
22558;DHT22;11445;53.816;8.902;2023-02-28T12:03:38;6.70;99.90
22558;DHT22;11445;53.816;8.902;2023-02-28T12:06:16;6.70;99.90
22558;DHT22;11445;53.816;8.902;2023-02-28T12:08:52;6.80;99.90
22558;DHT22;11445;53.816;8.902;2023-02-28T12:11:31;6.80;99.90
22558;DHT22;11445;53.816;8.902;2023-02-28T12:17:15;6.80;99.90
22558;DHT22;11445;53.816;8.902;2023-02-28T12:19:48;6.80;99.90
22558;DHT22;11445;53.816;8.902;2023-02-28T12:22:29;6.80;99.90
22558;DHT22;11445;53.816;8.902;2023-02-28T12:28:04;6.80;99.90
22558;DHT22;11445;53.816;8.902;2023-02-28T12:30:34;6.80;99.90
22558;DHT22;11445;53.816;8.902;2023-02-28T12:33:05;6.80;99.90
22558;DHT22;11445;53.816;8.902;2023-02-28T12:35:36;6.80;99.90
22558;DHT22;11445;53.816;8.902;2023-02-28T12:38:06;6.70;99.90
22558;DHT22;11445;53.816;8.902;2023-02-28T12:40:43;6.80;99.90
22558;DHT22;11445;53.816;8.902;2023-02-28T12:43:15;6.80;99.90
22558;DHT22;11445;53.816;8.902;2023-02-28T12:45:46;6.70;99.90
22558;DHT22;11445;53.816;8.902;2023-02-28T12:48:18;6.80;99.90
22558;DHT22;11445;53.816;8.902;2023-02-28T12:50:47;6.80;99.90
22558;DHT22;11445;53.816;8.902;2023-02-28T12:53:19;6.80;99.90
22558;DHT22;11445;53.816;8.902;2023-02-28T12:55:48;6.80;99.90
22558;DHT22;11445;53.816;8.902;2023-02-28T12:58:23;6.90;99.90
22558;DHT22;11445;53.816;8.902;2023-02-28T13:01:08;6.90;99.90
22558;DHT22;11445;53.816;8.902;2023-02-28T13:04:01;6.90;99.90
22558;DHT22;11445;53.816;8.902;2023-02-28T13:06:55;6.90;99.90
22558;DHT22;11445;53.816;8.902;2023-02-28T13:09:26;6.90;99.90
22558;DHT22;11445;53.816;8.902;2023-02-28T13:11:55;6.90;99.90
22558;DHT22;11445;53.816;8.902;2023-02-28T13:14:29;6.90;99.90
22558;DHT22;11445;53.816;8.902;2023-02-28T13:17:02;6.90;99.90
22558;DHT22;11445;53.816;8.902;2023-02-28T13:19:32;6.90;99.90
22558;DHT22;11445;53.816;8.902;2023-02-28T13:22:01;6.90;99.90
22558;DHT22;11445;53.816;8.902;2023-02-28T13:24:49;6.80;99.90
22558;DHT22;11445;53.816;8.902;2023-02-28T13:27:23;6.80;99.90
22558;DHT22;11445;53.816;8.902;2023-02-28T13:29:53;6.80;99.90
22558;DHT22;11445;53.816;8.902;2023-02-28T13:32:32;6.80;99.90
22558;DHT22;11445;53.816;8.902;2023-02-28T13:35:35;6.80;99.90
22558;DHT22;11445;53.816;8.902;2023-02-28T13:38:17;6.80;99.90
22558;DHT22;11445;53.816;8.902;2023-02-28T13:40:44;6.80;99.90
22558;DHT22;11445;53.816;8.902;2023-02-28T13:43:12;6.80;99.90
22558;DHT22;11445;53.816;8.902;2023-02-28T13:46:08;6.80;99.90
22558;DHT22;11445;53.816;8.902;2023-02-28T13:48:37;6.80;99.90
22558;DHT22;11445;53.816;8.902;2023-02-28T13:51:35;6.80;99.90
22558;DHT22;11445;53.816;8.902;2023-02-28T13:54:17;6.90;99.90
22558;DHT22;11445;53.816;8.902;2023-02-28T13:56:52;6.90;99.90
22558;DHT22;11445;53.816;8.902;2023-02-28T13:59:29;6.90;99.90
22558;DHT22;11445;53.816;8.902;2023-02-28T14:05:17;7.00;99.90
22558;DHT22;11445;53.816;8.902;2023-02-28T14:07:47;7.00;99.90
22558;DHT22;11445;53.816;8.902;2023-02-28T14:10:27;7.00;99.90
22558;DHT22;11445;53.816;8.902;2023-02-28T14:13:00;6.90;99.90
22558;DHT22;11445;53.816;8.902;2023-02-28T14:15:40;7.00;99.90
22558;DHT22;11445;53.816;8.902;2023-02-28T14:18:18;7.00;99.90
22558;DHT22;11445;53.816;8.902;2023-02-28T14:20:49;7.00;99.90
22558;DHT22;11445;53.816;8.902;2023-02-28T14:23:31;7.10;99.90
22558;DHT22;11445;53.816;8.902;2023-02-28T14:26:03;7.00;99.90
22558;DHT22;11445;53.816;8.902;2023-02-28T14:28:47;7.00;99.90
22558;DHT22;11445;53.816;8.902;2023-02-28T14:31:21;7.10;99.90
22558;DHT22;11445;53.816;8.902;2023-02-28T14:34:20;7.10;99.90
22558;DHT22;11445;53.816;8.902;2023-02-28T14:36:54;7.10;99.90
22558;DHT22;11445;53.816;8.902;2023-02-28T14:39:26;7.10;99.90
22558;DHT22;11445;53.816;8.902;2023-02-28T14:41:56;7.10;99.90
22558;DHT22;11445;53.816;8.902;2023-02-28T14:44:29;7.20;99.90
22558;DHT22;11445;53.816;8.902;2023-02-28T14:46:57;7.10;99.90
22558;DHT22;11445;53.816;8.902;2023-02-28T14:49:32;7.10;99.90
22558;DHT22;11445;53.816;8.902;2023-02-28T14:52:09;7.10;99.90
22558;DHT22;11445;53.816;8.902;2023-02-28T14:54:40;7.20;99.90
22558;DHT22;11445;53.816;8.902;2023-02-28T14:57:21;7.30;99.90
22558;DHT22;11445;53.816;8.902;2023-02-28T14:59:57;7.30;99.90
22558;DHT22;11445;53.816;8.902;2023-02-28T15:02:29;7.30;99.90
22558;DHT22;11445;53.816;8.902;2023-02-28T15:04:58;7.20;99.90
22558;DHT22;11445;53.816;8.902;2023-02-28T15:07:26;7.10;99.90
22558;DHT22;11445;53.816;8.902;2023-02-28T15:10:17;7.10;99.90
22558;DHT22;11445;53.816;8.902;2023-02-28T15:12:51;7.20;99.90
22558;DHT22;11445;53.816;8.902;2023-02-28T15:15:20;7.20;99.90
22558;DHT22;11445;53.816;8.902;2023-02-28T15:17:51;7.10;99.90
22558;DHT22;11445;53.816;8.902;2023-02-28T15:20:20;7.20;99.90
22558;DHT22;11445;53.816;8.902;2023-02-28T15:22:50;7.20;99.90
22558;DHT22;11445;53.816;8.902;2023-02-28T15:25:21;7.20;99.90
22558;DHT22;11445;53.816;8.902;2023-02-28T15:27:50;7.10;99.90
22558;DHT22;11445;53.816;8.902;2023-02-28T15:30:22;7.20;99.90
22558;DHT22;11445;53.816;8.902;2023-02-28T15:33:15;7.20;99.90
22558;DHT22;11445;53.816;8.902;2023-02-28T15:35:45;7.20;99.90
22558;DHT22;11445;53.816;8.902;2023-02-28T15:38:18;7.10;99.90
22558;DHT22;11445;53.816;8.902;2023-02-28T15:40:51;7.10;99.90
22558;DHT22;11445;53.816;8.902;2023-02-28T15:43:24;7.10;99.90
22558;DHT22;11445;53.816;8.902;2023-02-28T15:45:56;7.10;99.90
22558;DHT22;11445;53.816;8.902;2023-02-28T15:48:26;7.10;99.90
22558;DHT22;11445;53.816;8.902;2023-02-28T15:50:56;7.00;99.90
22558;DHT22;11445;53.816;8.902;2023-02-28T15:53:28;7.10;99.90
22558;DHT22;11445;53.816;8.902;2023-02-28T15:56:00;7.00;99.90
22558;DHT22;11445;53.816;8.902;2023-02-28T15:58:28;7.00;99.90
22558;DHT22;11445;53.816;8.902;2023-02-28T16:01:07;7.00;99.90
22558;DHT22;11445;53.816;8.902;2023-02-28T16:03:44;7.00;99.90
22558;DHT22;11445;53.816;8.902;2023-02-28T16:06:26;7.00;99.90
22558;DHT22;11445;53.816;8.902;2023-02-28T16:08:55;6.90;99.90
22558;DHT22;11445;53.816;8.902;2023-02-28T16:11:22;6.90;99.90
22558;DHT22;11445;53.816;8.902;2023-02-28T16:13:50;6.90;99.90
22558;DHT22;11445;53.816;8.902;2023-02-28T16:16:19;6.90;99.90
22558;DHT22;11445;53.816;8.902;2023-02-28T16:18:47;6.90;99.90
22558;DHT22;11445;53.816;8.902;2023-02-28T16:21:14;6.90;99.90
22558;DHT22;11445;53.816;8.902;2023-02-28T16:23:41;6.90;99.90
22558;DHT22;11445;53.816;8.902;2023-02-28T16:26:18;6.90;99.90